Time;durP1;ratioP1;P1;durP2;ratioP2;P2;SDS_P1;SDS_P2;PMS_P1;PMS_P2;Temp;Humidity;BMP_temperature;BMP_pressure;BME280_temperature;BME280_humidity;BME280_pressure;Samples;Min_cycle;Max_cycle;Signal;HPM_P1;HPM_P2
2020/12/24 00:01:06;;;;;;;;;;;;;;;29.38;28.63;101087.91;5056261;28;1902;-36
2020/12/24 00:03:31;;;;;;;;;;;;;;;28.81;30.11;101079.47;5056546;28;847;-37
2020/12/24 00:05:56;;;;;;;;;;;;;;;29.33;29.70;101084.91;5056352;28;948;-39
2020/12/24 00:08:22;;;;;;;;;;;;;;;29.58;29.13;101077.28;5056619;28;795;-40
2020/12/24 00:10:48;;;;;;;;;;;;;;;29.78;28.91;101084.00;5056169;28;863;-39
2020/12/24 00:13:13;;;;;;;;;;;;;;;29.45;29.23;101086.13;5055965;28;794;-39
2020/12/24 00:15:38;;;;;;;;;;;;;;;28.86;30.66;101093.28;5056514;28;855;-39
2020/12/24 00:18:03;;;;;;;;;;;;;;;28.90;30.49;101097.28;5056057;28;839;-38
2020/12/24 00:20:29;;;;;;;;;;;;;;;29.29;29.87;101103.44;5061339;28;1914;-38
2020/12/24 00:22:54;;;;;;;;;;;;;;;29.61;29.58;101105.09;5076192;28;862;-38
2020/12/24 00:25:19;;;;;;;;;;;;;;;29.91;29.24;101108.50;5076336;28;863;-38
2020/12/24 00:27:44;;;;;;;;;;;;;;;29.75;29.33;101103.34;5076506;28;779;-39
2020/12/24 00:30:10;;;;;;;;;;;;;;;29.42;29.51;101100.06;5076231;28;905;-38
2020/12/24 00:32:36;;;;;;;;;;;;;;;29.33;29.82;101104.75;5058652;28;818;-39
2020/12/24 00:35:01;;;;;;;;;;;;;;;29.57;29.46;101096.47;5074318;28;951;-40
2020/12/24 00:37:26;;;;;;;;;;;;;;;29.74;29.38;101093.53;5056592;28;803;-40
2020/12/24 00:39:51;;;;;;;;;;;;;;;29.73;29.19;101081.03;5056113;28;1965;-39
2020/12/24 00:42:17;;;;;;;;;;;;;;;29.35;29.70;101080.16;5056134;28;744;-41
2020/12/24 00:44:42;;;;;;;;;;;;;;;29.25;30.38;101079.63;5067440;28;1199;-40
2020/12/24 00:47:07;;;;;;;;;;;;;;;29.66;29.81;101084.50;5075786;28;1455;-40
2020/12/24 00:49:32;;;;;;;;;;;;;;;29.56;29.49;101092.91;5076419;28;855;-40
2020/12/24 00:51:58;;;;;;;;;;;;;;;30.09;28.55;101090.97;5076173;28;1018;-40
2020/12/24 00:54:23;;;;;;;;;;;;;;;29.75;29.24;101085.22;5076196;28;779;-39
2020/12/24 00:56:48;;;;;;;;;;;;;;;29.42;29.69;101089.22;5075981;28;760;-39
2020/12/24 00:59:13;;;;;;;;;;;;;;;28.71;31.59;101079.72;5076719;28;1906;-39
2020/12/24 01:01:39;;;;;;;;;;;;;;;29.30;30.06;101079.88;5075649;28;807;-39
2020/12/24 01:04:04;;;;;;;;;;;;;;;29.75;29.59;101078.94;5075922;28;847;-38
2020/12/24 01:06:29;;;;;;;;;;;;;;;30.04;29.21;101069.84;5061540;28;939;-40
2020/12/24 01:08:55;;;;;;;;;;;;;;;29.86;29.54;101059.47;5055861;28;795;-41
2020/12/24 01:11:20;;;;;;;;;;;;;;;29.49;30.03;101058.63;5055982;28;819;-39
2020/12/24 01:13:45;;;;;;;;;;;;;;;29.11;30.76;101062.38;5038222;28;775;-39
2020/12/24 01:16:11;;;;;;;;;;;;;;;29.63;30.13;101055.06;5055733;28;728;-39
2020/12/24 01:18:36;;;;;;;;;;;;;;;29.73;29.83;101054.72;5055567;28;1283;-37
2020/12/24 01:21:01;;;;;;;;;;;;;;;29.58;30.61;101060.19;5055447;28;1971;-37
2020/12/24 01:23:27;;;;;;;;;;;;;;;29.85;29.92;101059.63;5056725;28;855;-37
2020/12/24 01:25:52;;;;;;;;;;;;;;;29.52;30.43;101048.25;5059799;28;732;-36
2020/12/24 01:28:17;;;;;;;;;;;;;;;29.41;30.25;101044.16;5059584;28;807;-37
2020/12/24 01:30:43;;;;;;;;;;;;;;;29.14;31.23;101049.28;5059532;28;883;-37
2020/12/24 01:33:08;;;;;;;;;;;;;;;29.56;30.25;101041.41;5059352;28;784;-37
2020/12/24 01:35:34;;;;;;;;;;;;;;;29.90;29.95;101049.03;5059046;28;955;-40
2020/12/24 01:37:59;;;;;;;;;;;;;;;30.05;29.67;101036.25;5059319;28;780;-38
2020/12/24 01:40:24;;;;;;;;;;;;;;;29.81;29.93;101045.66;5059594;28;1969;-38
2020/12/24 01:42:50;;;;;;;;;;;;;;;29.26;30.60;101033.38;5059290;28;768;-38
2020/12/24 01:45:15;;;;;;;;;;;;;;;28.68;32.10;101025.94;5074789;28;1184;-38
2020/12/24 01:47:40;;;;;;;;;;;;;;;29.57;30.52;101025.97;5079206;28;811;-38
2020/12/24 01:50:05;;;;;;;;;;;;;;;29.88;30.02;101026.72;5076568;28;939;-38
2020/12/24 01:52:32;;;;;;;;;;;;;;;30.01;29.81;101026.81;5059503;28;820;-41
2020/12/24 01:54:58;;;;;;;;;;;;;;;29.63;30.34;101032.56;5058998;28;1414;-41
2020/12/24 01:57:23;;;;;;;;;;;;;;;29.48;30.06;101024.44;5040707;28;828;-40
2020/12/24 01:59:48;;;;;;;;;;;;;;;29.21;31.15;101035.84;5058927;28;1905;-42
2020/12/24 02:02:13;;;;;;;;;;;;;;;29.74;30.76;101034.75;5058917;28;792;-43
2020/12/24 02:04:39;;;;;;;;;;;;;;;29.96;30.06;101021.16;5058676;28;779;-43
2020/12/24 02:07:04;;;;;;;;;;;;;;;29.85;30.42;101025.22;5077146;28;975;-43
2020/12/24 02:09:29;;;;;;;;;;;;;;;29.41;31.10;101021.66;5060849;28;800;-42
2020/12/24 02:11:54;;;;;;;;;;;;;;;28.65;32.91;101019.03;5061100;28;768;-42
2020/12/24 02:14:20;;;;;;;;;;;;;;;29.58;30.88;101011.38;5078845;28;831;-43
2020/12/24 02:16:45;;;;;;;;;;;;;;;29.97;29.85;101014.69;5078330;28;910;-43
2020/12/24 02:19:10;;;;;;;;;;;;;;;29.91;30.16;101013.59;5078524;28;1231;-43
2020/12/24 02:21:36;;;;;;;;;;;;;;;29.53;30.45;101011.16;5063674;28;1958;-42
2020/12/24 02:24:01;;;;;;;;;;;;;;;29.05;31.36;101009.78;5057952;28;819;-39
2020/12/24 02:26:29;;;;;;;;;;;;;;;29.41;30.84;101005.41;5058426;28;776;-39
2020/12/24 02:28:54;;;;;;;;;;;;;;;29.93;30.18;101005.25;5040745;28;755;-40
2020/12/24 02:31:19;;;;;;;;;;;;;;;30.18;29.54;101000.25;5058055;28;802;-40
2020/12/24 02:33:44;;;;;;;;;;;;;;;29.83;30.24;101002.88;5058451;28;804;-39
2020/12/24 02:36:10;;;;;;;;;;;;;;;29.56;30.16;100999.94;5057226;28;943;-40
2020/12/24 02:38:35;;;;;;;;;;;;;;;28.95;31.68;101007.34;5057996;28;895;-38
2020/12/24 02:41:00;;;;;;;;;;;;;;;29.67;30.46;101002.16;5058576;28;1943;-37
2020/12/24 02:43:26;;;;;;;;;;;;;;;29.86;30.23;100991.66;5058720;28;1124;-37
2020/12/24 02:45:51;;;;;;;;;;;;;;;30.00;29.80;100997.19;5077519;28;874;-39
2020/12/24 02:48:16;;;;;;;;;;;;;;;29.72;30.07;100985.28;5078486;28;798;-38
2020/12/24 02:50:41;;;;;;;;;;;;;;;29.30;30.84;100995.91;5070197;28;959;-39
2020/12/24 02:53:07;;;;;;;;;;;;;;;29.38;31.40;101003.09;5057720;28;741;-38
2020/12/24 02:55:32;;;;;;;;;;;;;;;29.86;30.37;100991.66;5057983;28;760;-37
2020/12/24 02:57:57;;;;;;;;;;;;;;;30.10;30.18;100994.97;5057936;28;855;-37
2020/12/24 03:00:22;;;;;;;;;;;;;;;29.77;30.68;100996.38;5057682;28;1898;-39
2020/12/24 03:02:48;;;;;;;;;;;;;;;29.42;30.83;100999.78;5058048;28;835;-39
2020/12/24 03:05:13;;;;;;;;;;;;;;;29.38;31.22;101001.19;5057478;28;939;-38
2020/12/24 03:07:38;;;;;;;;;;;;;;;29.79;30.78;100997.03;5057371;28;550;-38
2020/12/24 03:10:04;;;;;;;;;;;;;;;29.94;30.34;100993.41;5057616;28;764;-38
2020/12/24 03:12:29;;;;;;;;;;;;;;;29.91;30.39;100991.09;5057604;28;803;-39
2020/12/24 03:14:54;;;;;;;;;;;;;;;29.50;30.70;100996.09;5057514;28;839;-39
2020/12/24 03:17:19;;;;;;;;;;;;;;;29.46;31.13;100994.81;5057132;28;843;-39
2020/12/24 03:19:45;;;;;;;;;;;;;;;29.73;30.79;101008.63;5057259;28;1977;-40
2020/12/24 03:22:10;;;;;;;;;;;;;;;30.04;30.19;101009.31;5057405;28;952;-39
2020/12/24 03:24:35;;;;;;;;;;;;;;;30.01;30.03;101007.81;5057296;28;862;-40
2020/12/24 03:27:01;;;;;;;;;;;;;;;29.61;30.90;101005.63;5057162;28;760;-39
2020/12/24 03:29:26;;;;;;;;;;;;;;;29.56;30.47;101008.88;5057335;28;775;-39
2020/12/24 03:31:51;;;;;;;;;;;;;;;29.46;30.84;101011.91;5057225;28;836;-39
2020/12/24 03:34:16;;;;;;;;;;;;;;;29.52;31.05;101002.19;5057042;28;760;-41
2020/12/24 03:36:42;;;;;;;;;;;;;;;26.49;25.38;100997.00;5056778;28;1046;-41
2020/12/24 03:39:07;;;;;;;;;;;;;;;25.12;26.83;100997.25;5057050;28;851;-41
2020/12/24 03:41:32;;;;;;;;;;;;;;;27.33;27.72;101003.75;5056832;28;1902;-47
2020/12/24 03:43:58;;;;;;;;;;;;;;;28.46;26.08;101002.34;5062042;28;1199;-46
2020/12/24 03:46:23;;;;;;;;;;;;;;;29.10;25.77;101001.94;5076056;28;822;-45
2020/12/24 03:48:48;;;;;;;;;;;;;;;29.27;25.65;101007.13;5076610;28;898;-45
2020/12/24 03:51:13;;;;;;;;;;;;;;;29.59;25.38;101007.69;5064834;28;947;-45
2020/12/24 03:53:39;;;;;;;;;;;;;;;29.67;25.03;101010.28;5056184;28;946;-45
2020/12/24 03:56:04;;;;;;;;;;;;;;;29.78;25.36;101006.19;5056720;28;764;-44
2020/12/24 03:58:29;;;;;;;;;;;;;;;29.88;25.25;101008.56;5056831;28;902;-41
2020/12/24 04:00:54;;;;;;;;;;;;;;;29.72;25.43;101008.84;5056860;28;1902;-43
2020/12/24 04:03:20;;;;;;;;;;;;;;;29.69;25.70;101012.78;5056706;28;875;-46
2020/12/24 04:05:45;;;;;;;;;;;;;;;29.95;25.30;101022.19;5056374;28;951;-46
2020/12/24 04:08:11;;;;;;;;;;;;;;;30.19;25.06;101023.66;5055946;28;895;-43
2020/12/24 04:10:36;;;;;;;;;;;;;;;29.92;25.58;101022.56;5056380;28;551;-44
2020/12/24 04:13:01;;;;;;;;;;;;;;;29.73;26.25;101015.97;5056776;28;728;-38
2020/12/24 04:15:27;;;;;;;;;;;;;;;29.82;26.13;101017.50;5056211;28;755;-40
2020/12/24 04:17:52;;;;;;;;;;;;;;;29.17;23.19;101008.28;5056779;28;748;-33
2020/12/24 04:20:17;;;;;;;;;;;;;;;25.52;24.58;100999.34;5055981;28;1913;-36
2020/12/24 04:22:42;;;;;;;;;;;;;;;24.20;25.83;100999.44;5056175;28;752;-35
2020/12/24 04:25:08;;;;;;;;;;;;;;;23.28;26.29;100991.50;5056164;28;859;-35
2020/12/24 04:27:33;;;;;;;;;;;;;;;23.29;26.63;101001.25;5056472;28;760;-36
2020/12/24 04:29:58;;;;;;;;;;;;;;;21.69;28.99;100991.91;5056209;28;886;-35
2020/12/24 04:32:23;;;;;;;;;;;;;;;22.19;28.10;100997.28;5056371;28;811;-35
2020/12/24 04:34:49;;;;;;;;;;;;;;;22.29;27.29;101007.97;5056111;28;971;-35
2020/12/24 04:37:16;;;;;;;;;;;;;;;22.35;27.56;101010.06;5056137;28;928;-35
2020/12/24 04:39:41;;;;;;;;;;;;;;;21.62;28.13;101004.19;5055968;28;1906;-35
2020/12/24 04:42:07;;;;;;;;;;;;;;;21.36;28.36;100999.31;5056237;28;782;-35
2020/12/24 04:44:32;;;;;;;;;;;;;;;21.84;28.79;101003.06;5066063;28;1128;-35
2020/12/24 04:46:57;;;;;;;;;;;;;;;21.62;28.39;101004.19;5076278;28;747;-35
2020/12/24 04:49:25;;;;;;;;;;;;;;;20.09;30.44;101014.59;5076170;28;759;-35
2020/12/24 04:51:51;;;;;;;;;;;;;;;18.77;33.48;101005.50;5058917;28;935;-37
2020/12/24 04:54:16;;;;;;;;;;;;;;;22.12;29.46;101005.88;5056198;28;803;-42
2020/12/24 04:56:41;;;;;;;;;;;;;;;23.48;28.74;101013.72;5055351;28;1062;-36
2020/12/24 04:59:07;;;;;;;;;;;;;;;24.33;27.99;101009.78;5058461;28;748;-42
2020/12/24 05:01:32;;;;;;;;;;;;;;;24.62;27.39;101013.16;5060326;28;1894;-40
2020/12/24 05:03:58;;;;;;;;;;;;;;;24.73;27.35;101012.03;5041277;28;800;-38
2020/12/24 05:06:23;;;;;;;;;;;;;;;25.55;26.33;101018.72;5058723;28;904;-40
2020/12/24 05:08:51;;;;;;;;;;;;;;;25.82;25.89;101024.00;5059877;28;1394;-41
2020/12/24 05:11:23;;;;;;;;;;;;;;;25.70;25.98;101022.63;5059485;28;866;-35
2020/12/24 05:13:48;;;;;;;;;;;;;;;25.59;26.34;101038.06;5059607;28;824;-40
2020/12/24 05:16:14;;;;;;;;;;;;;;;26.08;25.85;101028.38;5059675;28;760;-40
2020/12/24 05:18:39;;;;;;;;;;;;;;;26.15;25.82;101026.69;5059465;28;1055;-36
2020/12/24 05:21:04;;;;;;;;;;;;;;;25.48;26.86;101019.53;5059210;28;1910;-33
2020/12/24 05:23:30;;;;;;;;;;;;;;;26.18;26.04;101033.59;5059683;28;823;-35
2020/12/24 05:25:55;;;;;;;;;;;;;;;26.44;25.72;101029.91;5059460;28;788;-37
2020/12/24 05:28:20;;;;;;;;;;;;;;;26.20;26.20;101028.88;5059620;28;827;-35
2020/12/24 05:30:45;;;;;;;;;;;;;;;26.27;26.17;101023.66;5059518;28;811;-40
2020/12/24 05:33:11;;;;;;;;;;;;;;;26.56;25.62;101030.34;5059122;28;1020;-48
2020/12/24 05:35:36;;;;;;;;;;;;;;;27.17;24.89;101026.28;5059097;28;876;-49
2020/12/24 05:38:01;;;;;;;;;;;;;;;27.07;24.96;101031.91;5059394;28;940;-42
2020/12/24 05:40:27;;;;;;;;;;;;;;;27.03;25.11;101033.25;5059105;28;1906;-35
2020/12/24 05:42:56;;;;;;;;;;;;;;;26.63;25.97;101035.91;5059351;28;760;-40
2020/12/24 05:45:22;;;;;;;;;;;;;;;26.36;26.40;101035.31;5075164;28;1218;-40
2020/12/24 05:48:02;;;;;;;;;;;;;;;26.56;26.36;101033.06;5079039;28;831;-41
2020/12/24 05:50:27;;;;;;;;;;;;;;;26.77;25.86;101028.97;5073650;28;928;-42
2020/12/24 05:53:02;;;;;;;;;;;;;;;26.95;25.65;101026.03;5058701;28;819;-38
2020/12/24 05:55:28;;;;;;;;;;;;;;;27.27;25.51;101023.38;5059452;28;760;-38
2020/12/24 05:57:53;;;;;;;;;;;;;;;27.28;25.02;101022.34;5041440;28;1030;-34
2020/12/24 06:00:18;;;;;;;;;;;;;;;27.53;24.85;101019.50;5040727;28;1963;-40
2020/12/24 06:02:44;;;;;;;;;;;;;;;27.47;25.02;101020.22;5041193;28;772;-33
2020/12/24 06:05:09;;;;;;;;;;;;;;;27.69;24.83;101020.44;5040527;28;1010;-40
2020/12/24 06:07:35;;;;;;;;;;;;;;;27.69;24.87;101021.28;5041016;28;780;-33
2020/12/24 06:10:07;;;;;;;;;;;;;;;26.84;26.26;101024.53;5040013;28;1479;-33
2020/12/24 06:12:32;;;;;;;;;;;;;;;27.46;25.37;101015.84;5059027;28;819;-41
2020/12/24 06:14:59;;;;;;;;;;;;;;;27.47;25.14;101015.66;5058573;28;815;-35
2020/12/24 06:17:25;;;;;;;;;;;;;;;27.40;25.20;101009.28;5058750;28;854;-34
2020/12/24 06:19:51;;;;;;;;;;;;;;;27.85;24.60;101014.03;5057975;28;1902;-42
2020/12/24 06:22:19;;;;;;;;;;;;;;;27.78;25.01;101013.94;5058064;28;943;-42
2020/12/24 06:24:45;;;;;;;;;;;;;;;27.69;25.08;101006.91;5058881;28;771;-39
2020/12/24 06:27:15;;;;;;;;;;;;;;;27.42;25.49;101012.66;5057947;28;898;-36
2020/12/24 06:29:42;;;;;;;;;;;;;;;27.24;25.73;101016.44;5039991;28;792;-39
2020/12/24 06:32:07;;;;;;;;;;;;;;;27.45;25.56;101009.59;5041159;28;763;-34
2020/12/24 06:34:32;;;;;;;;;;;;;;;27.55;25.30;101005.78;5058285;28;740;-35
2020/12/24 06:37:11;;;;;;;;;;;;;;;27.54;25.47;100998.72;5057763;28;947;-41
2020/12/24 06:39:49;;;;;;;;;;;;;;;27.90;25.03;101013.50;5058213;28;1901;-33
2020/12/24 06:42:32;;;;;;;;;;;;;;;27.82;25.01;101007.16;5057788;28;772;-37
2020/12/24 06:44:58;;;;;;;;;;;;;;;28.17;24.48;101008.53;5071291;28;1156;-38
2020/12/24 06:47:23;;;;;;;;;;;;;;;27.29;25.78;101006.97;5077865;28;812;-34
2020/12/24 06:49:48;;;;;;;;;;;;;;;27.41;25.59;101000.13;5077239;28;911;-33
2020/12/24 06:52:14;;;;;;;;;;;;;;;27.79;24.75;101014.78;5058103;28;983;-41
2020/12/24 06:54:39;;;;;;;;;;;;;;;27.80;25.02;101011.03;5046415;28;1314;-40
2020/12/24 06:57:23;;;;;;;;;;;;;;;27.05;26.29;101006.09;5076905;28;864;-34
2020/12/24 06:59:49;;;;;;;;;;;;;;;27.86;25.09;100997.66;5072577;28;1902;-38
2020/12/24 07:02:24;;;;;;;;;;;;;;;26.97;26.30;100994.31;5077517;28;809;-34
2020/12/24 07:04:49;;;;;;;;;;;;;;;26.91;26.77;101000.38;5077209;28;979;-34
2020/12/24 07:07:15;;;;;;;;;;;;;;;27.08;26.39;101001.19;5057387;28;932;-34
2020/12/24 07:09:40;;;;;;;;;;;;;;;27.57;25.41;101004.63;5039695;28;1498;-42
2020/12/24 07:12:06;;;;;;;;;;;;;;;27.63;25.51;100993.06;5057436;28;775;-33
2020/12/24 07:14:31;;;;;;;;;;;;;;;27.24;25.96;100997.53;5058189;28;818;-33
2020/12/24 07:16:57;;;;;;;;;;;;;;;27.11;26.26;100991.91;5057054;28;787;-39
2020/12/24 07:19:22;;;;;;;;;;;;;;;27.22;26.25;100996.06;5057003;28;1046;-38
2020/12/24 07:21:48;;;;;;;;;;;;;;;27.32;26.08;100993.97;5056260;28;1914;-39
2020/12/24 07:24:13;;;;;;;;;;;;;;;27.98;25.02;100994.50;5057060;28;866;-43
2020/12/24 07:26:39;;;;;;;;;;;;;;;27.63;25.49;100995.78;5056854;28;935;-43
2020/12/24 07:29:05;;;;;;;;;;;;;;;27.75;25.41;100987.28;5056301;28;1559;-44
2020/12/24 07:31:30;;;;;;;;;;;;;;;27.92;25.41;100982.56;5076982;28;792;-40
2020/12/24 07:33:55;;;;;;;;;;;;;;;27.94;25.27;100979.69;5059385;28;807;-41
2020/12/24 07:36:24;;;;;;;;;;;;;;;27.75;25.38;100971.06;5063664;28;990;-46
2020/12/24 07:38:49;;;;;;;;;;;;;;;27.92;25.03;100981.72;5039182;28;804;-40
2020/12/24 07:41:16;;;;;;;;;;;;;;;28.04;25.27;100979.41;5056726;28;1957;-42
2020/12/24 07:43:41;;;;;;;;;;;;;;;27.65;25.68;100979.38;5059616;28;1100;-38
2020/12/24 07:46:07;;;;;;;;;;;;;;;27.83;25.38;100989.06;5076751;28;771;-37
2020/12/24 07:48:32;;;;;;;;;;;;;;;27.93;25.08;100984.25;5077318;28;768;-40
2020/12/24 07:50:57;;;;;;;;;;;;;;;27.19;26.28;100989.16;5066692;28;995;-42
2020/12/24 07:53:23;;;;;;;;;;;;;;;27.98;25.11;100987.25;5038493;28;1129;-45
2020/12/24 07:55:49;;;;;;;;;;;;;;;28.57;24.59;100983.97;5056613;28;808;-45
2020/12/24 07:58:15;;;;;;;;;;;;;;;27.80;25.45;100987.56;5056221;28;916;-39
2020/12/24 08:00:47;;;;;;;;;;;;;;;27.22;26.18;100990.66;5068253;28;1914;-41
2020/12/24 08:03:13;;;;;;;;;;;;;;;27.80;25.58;100990.28;5076637;28;768;-37
2020/12/24 08:05:39;;;;;;;;;;;;;;;27.89;25.25;100988.34;5068601;28;963;-37
2020/12/24 08:08:04;;;;;;;;;;;;;;;27.20;26.46;100985.44;5056787;28;830;-37
2020/12/24 08:10:30;;;;;;;;;;;;;;;26.99;26.68;100986.84;5056678;28;834;-43
2020/12/24 08:13:01;;;;;;;;;;;;;;;27.92;25.34;100989.84;5056309;28;843;-39
2020/12/24 08:15:26;;;;;;;;;;;;;;;28.09;25.23;100990.53;5056406;28;784;-37
2020/12/24 08:17:57;;;;;;;;;;;;;;;27.70;25.56;100985.13;5038507;28;811;-36
2020/12/24 08:20:22;;;;;;;;;;;;;;;28.18;24.97;100989.41;5054692;28;1921;-47
2020/12/24 08:22:59;;;;;;;;;;;;;;;28.05;25.05;100994.59;5055850;28;776;-35
2020/12/24 08:25:24;;;;;;;;;;;;;;;27.39;26.36;100991.41;5056520;28;826;-36
2020/12/24 08:27:49;;;;;;;;;;;;;;;27.10;26.61;100985.66;5037950;28;827;-37
2020/12/24 08:30:15;;;;;;;;;;;;;;;27.16;26.65;100985.97;5038495;28;823;-46
2020/12/24 08:32:40;;;;;;;;;;;;;;;26.90;27.27;101004.97;5055271;28;820;-38
2020/12/24 08:35:09;;;;;;;;;;;;;;;26.91;27.20;100986.88;5055634;28;1042;-37
2020/12/24 08:37:35;;;;;;;;;;;;;;;27.77;26.02;100990.63;5056597;28;770;-38
2020/12/24 08:40:16;;;;;;;;;;;;;;;28.06;25.64;100996.31;5056236;28;1905;-39
2020/12/24 08:42:42;;;;;;;;;;;;;;;27.46;26.21;100992.34;5056084;28;740;-35
2020/12/24 08:45:07;;;;;;;;;;;;;;;27.34;26.46;100993.78;5052778;28;1132;-38
2020/12/24 08:47:37;;;;;;;;;;;;;;;28.06;25.39;100991.72;5075815;28;692;-38
2020/12/24 08:50:02;;;;;;;;;;;;;;;28.17;25.06;100997.72;5073615;28;947;-37
2020/12/24 08:52:33;;;;;;;;;;;;;;;28.15;25.24;100994.34;5055909;28;1027;-36
2020/12/24 08:54:59;;;;;;;;;;;;;;;28.11;25.40;100983.91;5037747;28;819;-38
2020/12/24 08:57:25;;;;;;;;;;;;;;;28.17;25.38;100987.75;5056072;28;736;-37
2020/12/24 08:59:56;;;;;;;;;;;;;;;27.98;25.72;100984.53;5056015;28;1910;-39
2020/12/24 09:02:25;;;;;;;;;;;;;;;28.34;24.88;100976.78;5056040;28;740;-33
2020/12/24 09:04:54;;;;;;;;;;;;;;;28.36;25.05;100977.44;5054714;28;971;-42
2020/12/24 09:07:32;;;;;;;;;;;;;;;27.75;25.82;100958.38;5055530;28;950;-43
2020/12/24 09:10:10;;;;;;;;;;;;;;;28.09;25.28;100956.19;5055573;28;752;-49
2020/12/24 09:12:36;;;;;;;;;;;;;;;28.26;24.86;100945.19;5055372;28;504;-37
2020/12/24 09:15:03;;;;;;;;;;;;;;;28.34;25.14;100938.91;5055695;28;769;-34
2020/12/24 09:17:28;;;;;;;;;;;;;;;28.37;24.87;100938.53;5055849;28;745;-39
2020/12/24 09:20:01;;;;;;;;;;;;;;;28.31;25.46;100939.25;5055049;28;1930;-32
2020/12/24 09:22:26;;;;;;;;;;;;;;;28.54;24.73;100932.91;5055786;28;841;-36
2020/12/24 09:24:51;;;;;;;;;;;;;;;28.73;24.67;100929.63;5055805;28;864;-36
2020/12/24 09:27:16;;;;;;;;;;;;;;;27.97;25.73;100931.50;5055678;28;791;-37
2020/12/24 09:29:42;;;;;;;;;;;;;;;27.50;26.39;100931.53;5055356;28;847;-37
2020/12/24 09:32:07;;;;;;;;;;;;;;;28.19;25.20;100931.59;5056036;28;760;-36
2020/12/24 09:34:32;;;;;;;;;;;;;;;28.38;25.07;100929.38;5055527;28;895;-48
2020/12/24 09:36:58;;;;;;;;;;;;;;;27.49;26.60;100923.63;5055326;28;967;-36
2020/12/24 09:39:23;;;;;;;;;;;;;;;27.44;26.69;100910.66;5055688;28;826;-33
2020/12/24 09:41:48;;;;;;;;;;;;;;;28.05;25.90;100898.09;5055334;28;1954;-44
2020/12/24 09:44:14;;;;;;;;;;;;;;;28.11;25.61;100897.34;5063623;28;1187;-37
2020/12/24 09:46:39;;;;;;;;;;;;;;;28.33;25.03;100891.22;5079229;28;891;-43
2020/12/24 09:49:04;;;;;;;;;;;;;;;28.26;25.56;100888.41;5078856;28;806;-38
2020/12/24 09:51:33;;;;;;;;;;;;;;;28.27;25.25;100883.81;5064832;28;998;-43
2020/12/24 09:53:59;;;;;;;;;;;;;;;28.21;25.30;100880.84;5059256;28;760;-40
2020/12/24 09:56:24;;;;;;;;;;;;;;;28.09;25.43;100872.34;5058750;28;859;-34
2020/12/24 09:58:49;;;;;;;;;;;;;;;28.02;25.53;100870.59;5059394;28;846;-44
2020/12/24 10:01:15;;;;;;;;;;;;;;;27.99;25.46;100863.72;5058790;28;1959;-32
2020/12/24 10:03:41;;;;;;;;;;;;;;;28.01;25.74;100864.34;5058706;28;992;-45
2020/12/24 10:06:06;;;;;;;;;;;;;;;28.14;25.34;100866.41;5058834;28;991;-43
2020/12/24 10:08:31;;;;;;;;;;;;;;;28.06;25.67;100867.31;5058863;28;795;-34
2020/12/24 10:10:56;;;;;;;;;;;;;;;28.18;25.61;100865.00;5058735;28;819;-34
2020/12/24 10:13:22;;;;;;;;;;;;;;;28.15;25.55;100865.38;5058651;28;1452;-33
2020/12/24 10:15:47;;;;;;;;;;;;;;;27.80;26.19;100859.66;5058649;28;818;-34
2020/12/24 10:18:12;;;;;;;;;;;;;;;27.94;26.09;100864.28;5058508;28;1084;-43
2020/12/24 10:20:37;;;;;;;;;;;;;;;27.82;26.32;100863.88;5058303;28;1910;-36
2020/12/24 10:23:03;;;;;;;;;;;;;;;27.99;26.23;100864.53;5058583;28;895;-35
2020/12/24 10:25:28;;;;;;;;;;;;;;;27.79;26.38;100853.44;5058824;28;796;-42
2020/12/24 10:27:53;;;;;;;;;;;;;;;28.04;25.94;100850.47;5058456;28;887;-33
2020/12/24 10:30:19;;;;;;;;;;;;;;;28.34;25.72;100847.75;5058572;28;800;-37
2020/12/24 10:32:44;;;;;;;;;;;;;;;28.05;25.75;100840.47;5058144;28;788;-37
2020/12/24 10:35:09;;;;;;;;;;;;;;;27.97;26.11;100836.84;5057557;28;1007;-35
2020/12/24 10:37:34;;;;;;;;;;;;;;;27.92;26.18;100833.88;5058804;28;748;-33
2020/12/24 10:40:00;;;;;;;;;;;;;;;27.91;26.27;100826.75;5057962;28;1894;-42
2020/12/24 10:42:25;;;;;;;;;;;;;;;27.91;26.30;100823.25;5057921;28;831;-34
2020/12/24 10:44:50;;;;;;;;;;;;;;;27.99;26.04;100812.34;5070007;28;1194;-42
2020/12/24 10:47:15;;;;;;;;;;;;;;;28.20;26.01;100816.13;5077581;28;872;-31
2020/12/24 10:49:41;;;;;;;;;;;;;;;27.75;26.79;100814.28;5078196;28;846;-32
2020/12/24 10:52:09;;;;;;;;;;;;;;;27.99;26.58;100805.03;5058144;28;1014;-34
2020/12/24 10:54:34;;;;;;;;;;;;;;;27.80;26.76;100811.88;5057601;28;848;-47
2020/12/24 10:57:00;;;;;;;;;;;;;;;28.00;26.66;100803.19;5057147;28;784;-35
2020/12/24 10:59:25;;;;;;;;;;;;;;;27.85;26.97;100797.78;5057637;28;840;-32
2020/12/24 11:01:50;;;;;;;;;;;;;;;27.72;26.89;100791.19;5071263;28;1960;-46
2020/12/24 11:04:16;;;;;;;;;;;;;;;27.82;27.04;100792.75;5077733;28;1034;-37
2020/12/24 11:06:43;;;;;;;;;;;;;;;28.04;26.47;100793.69;5061485;28;986;-47
2020/12/24 11:09:09;;;;;;;;;;;;;;;27.86;26.63;100786.78;5057046;28;751;-38
2020/12/24 11:11:34;;;;;;;;;;;;;;;27.77;26.95;100790.63;5057095;28;800;-43
2020/12/24 11:13:59;;;;;;;;;;;;;;;27.79;26.74;100779.63;5057432;28;835;-43
2020/12/24 11:16:25;;;;;;;;;;;;;;;27.62;27.20;100794.13;5057221;28;818;-33
2020/12/24 11:18:50;;;;;;;;;;;;;;;27.69;27.13;100779.91;5056968;28;1151;-37
2020/12/24 11:21:15;;;;;;;;;;;;;;;27.70;27.03;100773.47;5056817;28;1934;-36
2020/12/24 11:23:41;;;;;;;;;;;;;;;27.82;26.92;100769.28;5056855;28;832;-37
2020/12/24 11:26:06;;;;;;;;;;;;;;;27.91;26.53;100764.59;5039007;28;1290;-35
2020/12/24 11:28:31;;;;;;;;;;;;;;;27.98;26.60;100767.38;5069984;28;1466;-44
2020/12/24 11:30:57;;;;;;;;;;;;;;;27.82;26.78;100763.88;5077172;28;788;-42
2020/12/24 11:33:22;;;;;;;;;;;;;;;27.90;26.70;100762.94;5076985;28;798;-43
2020/12/24 11:35:47;;;;;;;;;;;;;;;27.96;26.76;100764.06;5068581;28;935;-35
2020/12/24 11:38:13;;;;;;;;;;;;;;;27.95;26.55;100754.25;5057132;28;768;-34
2020/12/24 11:40:38;;;;;;;;;;;;;;;27.81;26.68;100751.38;5056802;28;1913;-43
2020/12/24 11:43:03;;;;;;;;;;;;;;;27.70;26.89;100757.25;5056822;28;807;-44
2020/12/24 11:45:29;;;;;;;;;;;;;;;27.72;26.94;100752.50;5074394;28;1195;-42
2020/12/24 11:47:54;;;;;;;;;;;;;;;27.88;26.57;100751.44;5076632;28;843;-40
2020/12/24 11:50:20;;;;;;;;;;;;;;;27.74;26.81;100751.28;5072132;28;923;-43
2020/12/24 11:52:45;;;;;;;;;;;;;;;27.89;26.51;100749.59;5056599;28;883;-37
2020/12/24 11:55:10;;;;;;;;;;;;;;;28.07;26.34;100751.91;5056460;28;780;-42
2020/12/24 11:57:36;;;;;;;;;;;;;;;27.81;26.77;100742.44;5056679;28;822;-34
2020/12/24 12:00:01;;;;;;;;;;;;;;;27.92;26.41;100736.53;5056645;28;1906;-44
2020/12/24 12:02:26;;;;;;;;;;;;;;;27.74;26.95;100739.66;5063507;28;860;-33
2020/12/24 12:04:51;;;;;;;;;;;;;;;27.77;26.65;100731.16;5076368;28;944;-35
2020/12/24 12:07:17;;;;;;;;;;;;;;;27.72;26.67;100726.31;5056153;28;995;-36
2020/12/24 12:09:42;;;;;;;;;;;;;;;27.78;26.62;100724.72;5055824;28;756;-35
2020/12/24 12:12:07;;;;;;;;;;;;;;;27.63;26.81;100722.84;5056249;28;851;-34
2020/12/24 12:14:33;;;;;;;;;;;;;;;27.65;27.08;100719.09;5056543;28;839;-34
2020/12/24 12:16:58;;;;;;;;;;;;;;;27.43;27.09;100722.56;5056158;28;879;-38
2020/12/24 12:19:23;;;;;;;;;;;;;;;27.75;26.67;100722.38;5056205;28;1103;-42
2020/12/24 12:21:49;;;;;;;;;;;;;;;27.53;27.04;100724.16;5055641;28;1964;-40
2020/12/24 12:24:15;;;;;;;;;;;;;;;27.67;27.01;100715.19;5055885;28;752;-39
2020/12/24 12:26:40;;;;;;;;;;;;;;;27.66;27.07;100718.09;5056293;28;763;-40
2020/12/24 12:29:09;;;;;;;;;;;;;;;27.86;26.44;100707.56;5064910;28;823;-41
2020/12/24 12:31:34;;;;;;;;;;;;;;;27.78;26.39;100703.09;5076017;28;775;-35
2020/12/24 12:34:01;;;;;;;;;;;;;;;27.87;26.52;100706.53;5076384;28;851;-36
2020/12/24 12:36:26;;;;;;;;;;;;;;;27.92;26.44;100703.25;5062196;28;928;-34
2020/12/24 12:38:52;;;;;;;;;;;;;;;27.91;25.91;100707.81;5056069;28;848;-46
2020/12/24 12:41:17;;;;;;;;;;;;;;;27.84;26.33;100706.91;5056055;28;1901;-34
2020/12/24 12:43:43;;;;;;;;;;;;;;;27.99;26.46;100704.19;5059229;28;1109;-35
2020/12/24 12:46:08;;;;;;;;;;;;;;;27.85;26.74;100712.13;5075696;28;824;-37
2020/12/24 12:48:33;;;;;;;;;;;;;;;27.74;26.88;100715.31;5076519;28;859;-39